Time;durP1;ratioP1;P1;durP2;ratioP2;P2;SDS_P1;SDS_P2;PMS_P1;PMS_P2;Temp;Humidity;BMP_temperature;BMP_pressure;BME280_temperature;BME280_humidity;BME280_pressure;Samples;Min_cycle;Max_cycle;Signal;HPM_P1;HPM_P2
2022/07/17 00:00:42;;;;;;;20.33;3.13;;;;;;;;;;4911846;29;20334;-57
2022/07/17 00:03:10;;;;;;;20.27;2.80;;;;;;;;;;4908686;29;20111;-61
2022/07/17 00:05:37;;;;;;;15.75;2.85;;;;;;;;;;4907804;29;20532;-59
2022/07/17 00:08:08;;;;;;;20.50;2.67;;;;;;;;;;4906439;29;20048;-59
2022/07/17 00:10:36;;;;;;;16.23;2.50;;;;;;;;;;4909562;29;20079;-58
2022/07/17 00:13:04;;;;;;;20.20;3.50;;;;;;;;;;4909672;29;20107;-59
2022/07/17 00:15:31;;;;;;;;;;;;;;;;;;4902627;29;20088;-60
2022/07/17 00:17:59;;;;;;;19.40;3.03;;;;;;;;;;4906158;29;19965;-59
2022/07/17 00:20:26;;;;;;;19.45;3.20;;;;;;;;;;4910282;29;20047;-56
2022/07/17 00:22:57;;;;;;;26.60;4.35;;;;;;;;;;4909978;29;20083;-60
2022/07/17 00:25:25;;;;;;;21.65;3.80;;;;;;;;;;4910073;29;20529;-61
2022/07/17 00:27:52;;;;;;;31.95;3.80;;;;;;;;;;4905886;29;20088;-60
2022/07/17 00:30:20;;;;;;;27.27;3.78;;;;;;;;;;4907560;29;20108;-60
2022/07/17 00:32:47;;;;;;;25.45;3.45;;;;;;;;;;4908240;29;20076;-61
2022/07/17 00:35:14;;;;;;;25.10;3.60;;;;;;;;;;4907872;29;20056;-60
2022/07/17 00:37:47;;;;;;;32.53;3.83;;;;;;;;;;4912121;29;20059;-61
2022/07/17 00:40:17;;;;;;;23.98;3.55;;;;;;;;;;4908631;29;20569;-60
2022/07/17 00:42:45;;;;;;;20.23;4.15;;;;;;;;;;4910004;29;20083;-57
2022/07/17 00:45:13;;;;;;;26.40;3.92;;;;;;;;;;4911730;29;20518;-55
2022/07/17 00:47:40;;;;;;;;;;;;;;;;;;4908545;29;20044;-54
2022/07/17 00:50:07;;;;;;;24.40;3.63;;;;;;;;;;4907088;29;19923;-52
2022/07/17 00:52:35;;;;;;;17.75;3.95;;;;;;;;;;4907822;29;20088;-54
2022/07/17 00:55:02;;;;;;;23.13;4.03;;;;;;;;;;4904774;29;20086;-48
2022/07/17 00:57:51;;;;;;;41.05;5.40;;;;;;;;;;4907687;29;20064;-53
2022/07/17 01:00:18;;;;;;;21.48;4.30;;;;;;;;;;4900283;29;20060;-57
2022/07/17 01:02:51;;;;;;;35.35;4.90;;;;;;;;;;4906202;29;20498;-61
2022/07/17 01:05:19;;;;;;;26.77;4.22;;;;;;;;;;4908427;29;20075;-61
2022/07/17 01:07:47;;;;;;;32.97;5.18;;;;;;;;;;4910899;29;20056;-61
2022/07/17 01:10:19;;;;;;;32.97;4.50;;;;;;;;;;4912543;29;20056;-61
2022/07/17 01:12:46;;;;;;;31.38;4.45;;;;;;;;;;4910825;29;20048;-61
2022/07/17 01:15:14;;;;;;;33.63;5.57;;;;;;;;;;4906835;29;20083;-62
2022/07/17 01:17:43;;;;;;;32.35;4.93;;;;;;;;;;4906496;29;20134;-53
2022/07/17 01:20:10;;;;;;;;;;;;;;;;;;4915095;29;20506;-57
2022/07/17 01:22:44;;;;;;;39.47;5.78;;;;;;;;;;4913731;29;19961;-59
2022/07/17 01:25:12;;;;;;;36.35;4.50;;;;;;;;;;4912258;29;20051;-57
2022/07/17 01:27:40;;;;;;;46.30;5.63;;;;;;;;;;4914633;29;20142;-57
2022/07/17 01:30:09;;;;;;;31.88;5.60;;;;;;;;;;4909825;29;20056;-56
2022/07/17 01:32:38;;;;;;;44.25;5.43;;;;;;;;;;4910151;29;20044;-59
2022/07/17 01:35:06;;;;;;;44.72;5.18;;;;;;;;;;4912305;29;20051;-58
2022/07/17 01:37:33;;;;;;;;;;;;;;;;;;4910163;29;20068;-60
2022/07/17 01:40:00;;;;;;;40.38;5.97;;;;;;;;;;4909449;29;19927;-54
2022/07/17 01:42:28;;;;;;;37.38;4.75;;;;;;;;;;4910671;29;20075;-56
2022/07/17 01:44:56;;;;;;;35.85;5.57;;;;;;;;;;4924213;29;20047;-53
2022/07/17 01:47:23;;;;;;;42.05;5.57;;;;;;;;;;4909880;29;20075;-54
2022/07/17 01:49:52;;;;;;;44.80;5.25;;;;;;;;;;4909973;29;20063;-55
2022/07/17 01:52:19;;;;;;;46.95;6.32;;;;;;;;;;4913273;29;20068;-56
2022/07/17 01:54:46;;;;;;;;;;;;;;;;;;4909846;29;20666;-56
2022/07/17 01:57:14;;;;;;;46.58;6.47;;;;;;;;;;4908474;29;19969;-55
2022/07/17 01:59:42;;;;;;;52.60;6.72;;;;;;;;;;4910257;29;20064;-54
2022/07/17 02:02:09;;;;;;;;;;;;;;;;;;4910888;29;20171;-55
2022/07/17 02:04:37;;;;;;;43.38;5.50;;;;;;;;;;4912080;29;20302;-54
2022/07/17 02:07:05;;;;;;;41.90;5.63;;;;;;;;;;4911966;29;20044;-54
2022/07/17 02:09:32;;;;;;;48.53;6.55;;;;;;;;;;4910003;29;20104;-55
2022/07/17 02:12:00;;;;;;;51.42;5.82;;;;;;;;;;4910076;29;20152;-56
2022/07/17 02:14:27;;;;;;;55.55;6.43;;;;;;;;;;4906986;29;20692;-57
2022/07/17 02:16:54;;;;;;;38.03;6.65;;;;;;;;;;4909077;29;20108;-61
2022/07/17 02:19:22;;;;;;;44.22;7.75;;;;;;;;;;4912313;29;20509;-61
2022/07/17 02:21:49;;;;;;;43.97;6.40;;;;;;;;;;4909857;29;20592;-61
2022/07/17 02:24:16;;;;;;;47.22;6.45;;;;;;;;;;4910042;29;20099;-61
2022/07/17 02:26:44;;;;;;;53.13;7.47;;;;;;;;;;4910988;29;20083;-61
2022/07/17 02:29:11;;;;;;;53.85;6.60;;;;;;;;;;4924924;29;20194;-61
2022/07/17 02:31:39;;;;;;;60.70;7.60;;;;;;;;;;4910922;29;20090;-61
2022/07/17 02:34:06;;;;;;;49.85;6.80;;;;;;;;;;4911758;29;20054;-60
2022/07/17 02:36:34;;;;;;;57.83;7.43;;;;;;;;;;4909705;29;20533;-59
2022/07/17 02:39:02;;;;;;;55.58;7.70;;;;;;;;;;4905384;29;20143;-61
2022/07/17 02:41:29;;;;;;;51.70;7.25;;;;;;;;;;4904682;29;20079;-61
2022/07/17 02:43:57;;;;;;;53.92;7.97;;;;;;;;;;4906048;29;20059;-61
2022/07/17 02:46:24;;;;;;;52.60;7.75;;;;;;;;;;4907170;29;20494;-61
2022/07/17 02:48:52;;;;;;;59.00;8.63;;;;;;;;;;4903978;29;20581;-61
2022/07/17 02:51:19;;;;;;;51.13;8.45;;;;;;;;;;4909104;29;20079;-61
2022/07/17 02:53:46;;;;;;;41.83;6.78;;;;;;;;;;4906938;29;20596;-61
2022/07/17 02:56:14;;;;;;;54.95;7.90;;;;;;;;;;4907735;29;20159;-54
2022/07/17 02:58:41;;;;;;;67.50;8.48;;;;;;;;;;4907309;29;20130;-56
2022/07/17 03:01:08;;;;;;;63.78;8.20;;;;;;;;;;4911708;29;20525;-56
2022/07/17 03:03:36;;;;;;;53.42;8.52;;;;;;;;;;4907307;29;20049;-54
2022/07/17 03:06:03;;;;;;;60.83;7.80;;;;;;;;;;4907002;29;20612;-54
2022/07/17 03:08:30;;;;;;;43.95;7.20;;;;;;;;;;4907436;29;20194;-56
2022/07/17 03:10:58;;;;;;;60.70;8.15;;;;;;;;;;4908773;29;20091;-56
2022/07/17 03:13:25;;;;;;;57.42;8.20;;;;;;;;;;4909896;29;20055;-55
2022/07/17 03:15:52;;;;;;;70.80;9.00;;;;;;;;;;4909666;29;20051;-63
2022/07/17 03:18:20;;;;;;;67.80;9.23;;;;;;;;;;4909439;29;20085;-62
2022/07/17 03:20:47;;;;;;;50.15;8.10;;;;;;;;;;4904041;29;20574;-62
2022/07/17 03:23:15;;;;;;;;;;;;;;;;;;4910816;29;20068;-63
2022/07/17 03:25:42;;;;;;;49.28;8.00;;;;;;;;;;4905645;29;19934;-62
2022/07/17 03:28:09;;;;;;;59.55;8.18;;;;;;;;;;4910161;29;20079;-62
2022/07/17 03:30:37;;;;;;;54.08;8.63;;;;;;;;;;4907892;29;20053;-59
2022/07/17 03:33:04;;;;;;;55.67;8.73;;;;;;;;;;4910564;29;20048;-53
2022/07/17 03:35:31;;;;;;;49.72;7.85;;;;;;;;;;4907640;29;20083;-59
2022/07/17 03:37:59;;;;;;;55.20;8.70;;;;;;;;;;4910418;29;20056;-60
2022/07/17 03:40:26;;;;;;;62.45;9.40;;;;;;;;;;4910162;29;20071;-60
2022/07/17 03:42:53;;;;;;;51.85;7.95;;;;;;;;;;4907770;29;20060;-59
2022/07/17 03:45:20;;;;;;;67.82;9.40;;;;;;;;;;4906523;29;20080;-61
2022/07/17 03:47:48;;;;;;;;;;;;;;;;;;4908982;29;20134;-60
2022/07/17 03:50:15;;;;;;;60.08;8.45;;;;;;;;;;4907755;29;19970;-61
2022/07/17 03:52:43;;;;;;;43.53;6.30;;;;;;;;;;4910632;29;20060;-60
2022/07/17 03:55:10;;;;;;;54.03;8.73;;;;;;;;;;4909626;29;20107;-58
2022/07/17 03:57:37;;;;;;;53.17;8.15;;;;;;;;;;4909273;29;20072;-59
2022/07/17 04:00:05;;;;;;;48.90;7.45;;;;;;;;;;4907234;29;20091;-60
2022/07/17 04:02:32;;;;;;;47.50;7.70;;;;;;;;;;4907158;29;20565;-60
2022/07/17 04:04:59;;;;;;;48.88;7.90;;;;;;;;;;4907879;29;20056;-59
2022/07/17 04:07:27;;;;;;;43.72;7.63;;;;;;;;;;4911828;29;20084;-60
2022/07/17 04:09:58;;;;;;;50.03;6.20;;;;;;;;;;4910645;29;20530;-56
2022/07/17 04:12:25;;;;;;;51.40;7.22;;;;;;;;;;4907829;29;20860;-61
2022/07/17 04:14:53;;;;;;;42.00;6.50;;;;;;;;;;4910643;29;20060;-61
2022/07/17 04:17:20;;;;;;;53.58;7.28;;;;;;;;;;4909913;29;20056;-61
2022/07/17 04:19:48;;;;;;;50.53;6.88;;;;;;;;;;4907762;29;20052;-61
2022/07/17 04:22:15;;;;;;;;;;;;;;;;;;4910294;29;20044;-61
2022/07/17 04:24:42;;;;;;;45.63;6.35;;;;;;;;;;4908343;29;19967;-61
2022/07/17 04:27:09;;;;;;;43.63;7.22;;;;;;;;;;4910164;29;20116;-62
2022/07/17 04:29:37;;;;;;;40.00;6.10;;;;;;;;;;4907843;29;20569;-59
2022/07/17 04:32:05;;;;;;;45.40;6.03;;;;;;;;;;4907404;29;20052;-61
2022/07/17 04:34:33;;;;;;;41.10;6.28;;;;;;;;;;4902996;29;20139;-61
2022/07/17 04:37:01;;;;;;;45.00;7.05;;;;;;;;;;4906749;29;20109;-61
2022/07/17 04:39:29;;;;;;;49.22;7.40;;;;;;;;;;4908920;29;20092;-61
2022/07/17 04:41:56;;;;;;;31.75;5.72;;;;;;;;;;4910735;29;20048;-62
2022/07/17 04:44:24;;;;;;;36.65;6.50;;;;;;;;;;4907630;29;20099;-60
2022/07/17 04:46:51;;;;;;;32.83;5.72;;;;;;;;;;4910637;29;20083;-60
2022/07/17 04:49:18;;;;;;;31.30;6.00;;;;;;;;;;4903409;29;20052;-56
2022/07/17 04:51:46;;;;;;;39.08;6.00;;;;;;;;;;4907917;29;20091;-60
2022/07/17 04:54:14;;;;;;;39.75;6.78;;;;;;;;;;4907635;29;20103;-58
2022/07/17 04:56:41;;;;;;;41.13;6.03;;;;;;;;;;4908457;29;20056;-58
2022/07/17 04:59:09;;;;;;;36.55;6.20;;;;;;;;;;4906933;29;20143;-57
2022/07/17 05:01:36;;;;;;;41.58;5.80;;;;;;;;;;4911004;29;20537;-58
2022/07/17 05:04:04;;;;;;;35.05;5.80;;;;;;;;;;4906335;29;20102;-58
2022/07/17 05:06:31;;;;;;;29.45;4.85;;;;;;;;;;4908727;29;20048;-59
2022/07/17 05:08:58;;;;;;;32.63;5.75;;;;;;;;;;4907378;29;20079;-54
2022/07/17 05:11:25;;;;;;;32.28;5.57;;;;;;;;;;4907126;29;20095;-58
2022/07/17 05:13:53;;;;;;;;;;;;;;;;;;4910134;29;20078;-61
2022/07/17 05:16:20;;;;;;;38.00;5.35;;;;;;;;;;4909616;29;19927;-59
2022/07/17 05:18:48;;;;;;;28.88;5.45;;;;;;;;;;4907921;29;20045;-58
2022/07/17 05:21:15;;;;;;;37.45;6.25;;;;;;;;;;4909375;29;20098;-59
2022/07/17 05:23:43;;;;;;;27.98;4.95;;;;;;;;;;4904165;29;20048;-58
2022/07/17 05:26:10;;;;;;;31.75;5.40;;;;;;;;;;4908637;29;20507;-51
2022/07/17 05:28:38;;;;;;;37.85;5.00;;;;;;;;;;4907529;29;20079;-56
2022/07/17 05:31:05;;;;;;;22.17;4.25;;;;;;;;;;4904211;29;20084;-57
2022/07/17 05:33:32;;;;;;;;;;;;;;;;;;4903809;29;20084;-56
2022/07/17 05:36:00;;;;;;;23.50;4.35;;;;;;;;;;4906129;29;19949;-57
2022/07/17 05:38:27;;;;;;;21.70;4.53;;;;;;;;;;4909568;29;20573;-59
2022/07/17 05:40:54;;;;;;;26.75;4.90;;;;;;;;;;4904198;29;20088;-59
2022/07/17 05:43:22;;;;;;;26.58;5.30;;;;;;;;;;4918843;29;20116;-59
2022/07/17 05:45:49;;;;;;;25.75;4.03;;;;;;;;;;4909330;29;20091;-55
2022/07/17 05:48:16;;;;;;;28.75;5.07;;;;;;;;;;4906695;29;20505;-54
2022/07/17 05:50:43;;;;;;;22.48;5.05;;;;;;;;;;4910355;29;20075;-49
2022/07/17 05:53:10;;;;;;;16.25;4.00;;;;;;;;;;4908563;29;20434;-50
2022/07/17 05:55:38;;;;;;;18.10;4.03;;;;;;;;;;4906679;29;20072;-49
2022/07/17 05:58:05;;;;;;;20.38;4.03;;;;;;;;;;4910558;29;20786;-51
2022/07/17 06:00:32;;;;;;;30.60;4.90;;;;;;;;;;4909396;29;20533;-50
2022/07/17 06:03:00;;;;;;;22.30;3.90;;;;;;;;;;4910048;29;20449;-53
2022/07/17 06:05:27;;;;;;;27.55;4.47;;;;;;;;;;4905927;29;20080;-54
2022/07/17 06:07:55;;;;;;;25.40;4.43;;;;;;;;;;4907483;29;20072;-47
2022/07/17 06:10:23;;;;;;;20.60;3.88;;;;;;;;;;4911303;29;20139;-52
2022/07/17 06:12:52;;;;;;;20.80;4.63;;;;;;;;;;4909666;29;20083;-53
2022/07/17 06:15:20;;;;;;;20.27;4.03;;;;;;;;;;4912835;29;20083;-51
2022/07/17 06:17:48;;;;;;;19.02;4.18;;;;;;;;;;4912991;29;20048;-54
2022/07/17 06:20:15;;;;;;;18.90;3.88;;;;;;;;;;4909553;29;20072;-53
2022/07/17 06:22:43;;;;;;;16.52;3.58;;;;;;;;;;4916400;29;20536;-58
2022/07/17 06:25:11;;;;;;;19.17;4.13;;;;;;;;;;4906505;29;20091;-59
2022/07/17 06:27:42;;;;;;;12.85;3.20;;;;;;;;;;4913046;29;20056;-59
2022/07/17 06:30:10;;;;;;;14.38;3.05;;;;;;;;;;4909043;29;20107;-58
2022/07/17 06:32:37;;;;;;;12.50;2.88;;;;;;;;;;4912984;29;20094;-58
2022/07/17 06:35:06;;;;;;;17.35;3.20;;;;;;;;;;4910390;29;20151;-59
2022/07/17 06:37:33;;;;;;;12.68;2.45;;;;;;;;;;4908195;29;20095;-58
2022/07/17 06:40:00;;;;;;;;;;;;;;;;;;4908055;29;20142;-58
2022/07/17 06:42:28;;;;;;;12.60;2.58;;;;;;;;;;4908630;29;20531;-58
2022/07/17 06:44:58;;;;;;;7.18;2.10;;;;;;;;;;4911128;29;20430;-58
2022/07/17 06:47:25;;;;;;;7.22;2.10;;;;;;;;;;4908140;29;20138;-58
2022/07/17 06:49:52;;;;;;;9.85;1.98;;;;;;;;;;4912334;29;20131;-58
2022/07/17 06:52:20;;;;;;;15.65;1.92;;;;;;;;;;4911017;29;20049;-59
2022/07/17 06:54:47;;;;;;;8.95;1.83;;;;;;;;;;4907464;29;20537;-59
2022/07/17 06:57:14;;;;;;;4.43;1.60;;;;;;;;;;4907801;29;20486;-58
2022/07/17 06:59:41;;;;;;;4.93;1.42;;;;;;;;;;4910178;29;20079;-58
2022/07/17 07:02:09;;;;;;;7.63;1.45;;;;;;;;;;4914733;29;20127;-58
2022/07/17 07:04:36;;;;;;;4.57;1.40;;;;;;;;;;4905614;29;20056;-51
2022/07/17 07:07:03;;;;;;;6.80;1.88;;;;;;;;;;4911102;29;20090;-54
2022/07/17 07:09:32;;;;;;;5.30;1.50;;;;;;;;;;4909513;29;20091;-53
2022/07/17 07:12:00;;;;;;;5.53;1.23;;;;;;;;;;4910046;29;20080;-54
2022/07/17 07:14:27;;;;;;;3.42;1.17;;;;;;;;;;4902576;29;20111;-52
2022/07/17 07:16:54;;;;;;;3.42;1.27;;;;;;;;;;4907139;29;20048;-49
2022/07/17 07:19:22;;;;;;;;;;;;;;;;;;4911248;29;20146;-58
2022/07/17 07:21:49;;;;;;;7.97;1.10;;;;;;;;;;4907969;29;19931;-60
2022/07/17 07:24:16;;;;;;;4.75;1.33;;;;;;;;;;4907083;29;20050;-58
2022/07/17 07:26:46;;;;;;;4.70;1.00;;;;;;;;;;4907512;29;20584;-59
2022/07/17 07:29:13;;;;;;;3.78;0.88;;;;;;;;;;4906318;29;20510;-59
2022/07/17 07:31:43;;;;;;;8.02;1.15;;;;;;;;;;4911003;29;20063;-58
2022/07/17 07:34:11;;;;;;;4.15;1.27;;;;;;;;;;4907732;29;20044;-58
2022/07/17 07:36:38;;;;;;;10.18;1.00;;;;;;;;;;4910805;29;20061;-58
2022/07/17 07:39:05;;;;;;;4.45;1.10;;;;;;;;;;4910738;29;20088;-58
2022/07/17 07:41:33;;;;;;;;;;;;;;;;;;4914737;29;20060;-57
2022/07/17 07:44:00;;;;;;;5.10;1.17;;;;;;;;;;4914561;29;19971;-61
2022/07/17 07:46:28;;;;;;;2.13;1.00;;;;;;;;;;4912607;29;20074;-61
2022/07/17 07:48:55;;;;;;;;;;;;;;;;;;4910198;29;20490;-60
2022/07/17 07:51:22;;;;;;;5.72;1.10;;;;;;;;;;4914118;29;20432;-61
2022/07/17 07:54:09;;;;;;;4.47;1.20;;;;;;;;;;4905769;29;20045;-61
2022/07/17 07:56:37;;;;;;;2.13;0.85;;;;;;;;;;4910597;29;20056;-61
2022/07/17 07:59:05;;;;;;;3.88;1.20;;;;;;;;;;4909464;29;20417;-58
2022/07/17 08:01:32;;;;;;;4.55;1.35;;;;;;;;;;4905933;29;20814;-57
2022/07/17 08:04:00;;;;;;;2.13;0.90;;;;;;;;;;4908491;29;20090;-57
2022/07/17 08:06:27;;;;;;;5.40;1.20;;;;;;;;;;4907158;29;20075;-57
2022/07/17 08:08:54;;;;;;;7.80;1.63;;;;;;;;;;4910294;29;20103;-55
2022/07/17 08:11:22;;;;;;;3.88;1.40;;;;;;;;;;4907740;29;20510;-57
2022/07/17 08:13:49;;;;;;;13.23;2.20;;;;;;;;;;4907779;29;20080;-58
2022/07/17 08:16:16;;;;;;;6.82;1.75;;;;;;;;;;4902443;29;20135;-61
2022/07/17 08:18:43;;;;;;;;;;;;;;;;;;4909513;29;20112;-55
2022/07/17 08:21:11;;;;;;;10.93;2.42;;;;;;;;;;4905051;29;19990;-59
2022/07/17 08:23:38;;;;;;;10.75;2.28;;;;;;;;;;4910606;29;20048;-59
2022/07/17 08:26:06;;;;;;;;;;;;;;;;;;4908606;29;20056;-58
2022/07/17 08:28:37;;;;;;;8.07;2.50;;;;;;;;;;4910642;29;19990;-58
2022/07/17 08:31:04;;;;;;;10.73;2.10;;;;;;;;;;4909578;29;20127;-59
2022/07/17 08:33:32;;;;;;;7.15;2.35;;;;;;;;;;4907463;29;20170;-59
2022/07/17 08:35:59;;;;;;;12.88;2.63;;;;;;;;;;4905082;29;20135;-57
2022/07/17 08:38:26;;;;;;;9.50;2.35;;;;;;;;;;4907617;29;20115;-55
2022/07/17 08:40:54;;;;;;;7.95;1.95;;;;;;;;;;4901418;29;20568;-57
2022/07/17 08:43:21;;;;;;;12.38;2.50;;;;;;;;;;4904446;29;20052;-56
2022/07/17 08:45:49;;;;;;;9.68;2.28;;;;;;;;;;4906673;29;20910;-57
2022/07/17 08:48:17;;;;;;;8.77;2.17;;;;;;;;;;4908497;29;20054;-58
2022/07/17 08:50:45;;;;;;;14.02;2.58;;;;;;;;;;4908053;29;20052;-57
2022/07/17 08:53:15;;;;;;;8.93;2.50;;;;;;;;;;4906989;29;20044;-57
2022/07/17 08:55:43;;;;;;;13.07;2.33;;;;;;;;;;4902743;29;20481;-61
2022/07/17 08:58:10;;;;;;;;;;;;;;;;;;4908744;29;20411;-58
2022/07/17 09:00:37;;;;;;;10.40;2.30;;;;;;;;;;4904926;29;19961;-58
2022/07/17 09:03:09;;;;;;;9.55;2.45;;;;;;;;;;4906147;29;20036;-59
2022/07/17 09:05:38;;;;;;;12.07;2.53;;;;;;;;;;4913177;29;20059;-59
2022/07/17 09:08:07;;;;;;;9.38;2.80;;;;;;;;;;4909686;29;20059;-59
2022/07/17 09:10:38;;;;;;;7.72;2.10;;;;;;;;;;4908191;29;20123;-59
2022/07/17 09:13:18;;;;;;;9.02;2.50;;;;;;;;;;4906725;29;20453;-59
2022/07/17 09:15:46;;;;;;;11.68;2.65;;;;;;;;;;4909264;29;20052;-60
2022/07/17 09:18:14;;;;;;;8.60;2.10;;;;;;;;;;4909586;29;20076;-48
2022/07/17 09:20:45;;;;;;;7.32;2.17;;;;;;;;;;4908910;29;20075;-55
2022/07/17 09:23:13;;;;;;;10.07;2.78;;;;;;;;;;4912946;29;20492;-54
2022/07/17 09:25:43;;;;;;;11.43;2.17;;;;;;;;;;4907716;29;20083;-51
2022/07/17 09:28:11;;;;;;;9.80;2.38;;;;;;;;;;4909860;29;20089;-56
2022/07/17 09:30:40;;;;;;;7.60;2.50;;;;;;;;;;4912187;29;20079;-54
2022/07/17 09:33:08;;;;;;;9.38;2.17;;;;;;;;;;4911925;29;20115;-57
2022/07/17 09:35:44;;;;;;;8.85;2.10;;;;;;;;;;4909770;29;20076;-57
2022/07/17 09:38:11;;;;;;;11.88;2.30;;;;;;;;;;4915300;29;20079;-53
2022/07/17 09:43:24;;;;;;;7.88;2.30;;;;;;;;;;4913594;29;19923;-51
2022/07/17 09:45:52;;;;;;;8.15;2.15;;;;;;;;;;4907744;29;20104;-50
2022/07/17 09:48:19;;;;;;;9.82;2.60;;;;;;;;;;4904720;29;20064;-53
2022/07/17 09:50:46;;;;;;;7.65;2.15;;;;;;;;;;4909778;29;20120;-54
2022/07/17 09:53:14;;;;;;;9.70;2.15;;;;;;;;;;4910513;29;20052;-60
2022/07/17 09:55:43;;;;;;;5.90;1.60;;;;;;;;;;4913483;29;20490;-56
2022/07/17 09:58:14;;;;;;;5.88;1.90;;;;;;;;;;4910766;29;20048;-58
2022/07/17 10:00:41;;;;;;;;;;;;;;;;;;4912721;29;20052;-57
2022/07/17 10:03:08;;;;;;;5.22;1.50;;;;;;;;;;4906720;29;19931;-56
2022/07/17 10:05:36;;;;;;;4.78;1.55;;;;;;;;;;4907017;29;20064;-57
2022/07/17 10:08:11;;;;;;;4.40;1.70;;;;;;;;;;4910737;29;20063;-58
2022/07/17 10:10:39;;;;;;;5.05;1.60;;;;;;;;;;4914948;29;20083;-60
2022/07/17 10:13:07;;;;;;;7.05;1.38;;;;;;;;;;4909129;29;20091;-58
2022/07/17 10:15:34;;;;;;;7.38;1.83;;;;;;;;;;4912392;29;20312;-59
2022/07/17 10:18:05;;;;;;;4.90;1.50;;;;;;;;;;4908828;29;20058;-59
2022/07/17 10:20:33;;;;;;;2.53;1.60;;;;;;;;;;4909969;29;20103;-60
2022/07/17 10:23:00;;;;;;;;;;;;;;;;;;4908819;29;20052;-59
2022/07/17 10:25:28;;;;;;;7.57;2.17;;;;;;;;;;4907949;29;19974;-59
2022/07/17 10:27:56;;;;;;;5.93;2.03;;;;;;;;;;4910353;29;20083;-59
2022/07/17 10:30:26;;;;;;;7.95;1.92;;;;;;;;;;4902979;29;20049;-54
2022/07/17 10:32:58;;;;;;;6.22;1.77;;;;;;;;;;4908319;29;20075;-60
2022/07/17 10:35:26;;;;;;;5.32;1.70;;;;;;;;;;4913241;29;20072;-59
2022/07/17 10:37:58;;;;;;;5.97;1.55;;;;;;;;;;4906123;29;20068;-59
2022/07/17 10:40:32;;;;;;;5.55;1.80;;;;;;;;;;4910486;29;20091;-59
2022/07/17 10:43:00;;;;;;;2.67;1.52;;;;;;;;;;4906709;29;20083;-58
2022/07/17 10:45:33;;;;;;;2.92;1.35;;;;;;;;;;4906525;29;20059;-59
2022/07/17 10:48:02;;;;;;;3.22;1.40;;;;;;;;;;4908248;29;20506;-59
2022/07/17 10:50:41;;;;;;;7.70;1.10;;;;;;;;;;4907964;29;20522;-59
2022/07/17 10:53:35;;;;;;;7.47;1.13;;;;;;;;;;4904304;29;21052;-60
2022/07/17 10:56:06;;;;;;;2.53;0.90;;;;;;;;;;4906441;29;20044;-60
2022/07/17 10:58:38;;;;;;;2.30;0.77;;;;;;;;;;4908804;29;20055;-60
2022/07/17 11:01:06;;;;;;;2.53;0.95;;;;;;;;;;4906002;29;20083;-60
2022/07/17 11:03:38;;;;;;;1.23;0.73;;;;;;;;;;4910448;29;20497;-60
2022/07/17 11:06:07;;;;;;;3.47;1.15;;;;;;;;;;4910936;29;20056;-60
2022/07/17 11:08:41;;;;;;;2.72;0.40;;;;;;;;;;4906216;29;20475;-59
2022/07/17 11:11:09;;;;;;;1.00;0.63;;;;;;;;;;4908254;29;20056;-59
2022/07/17 11:13:45;;;;;;;2.83;0.60;;;;;;;;;;4909417;29;20092;-56
2022/07/17 11:16:13;;;;;;;3.08;0.88;;;;;;;;;;4916558;29;20055;-58
2022/07/17 11:18:47;;;;;;;1.75;0.70;;;;;;;;;;4907046;29;20048;-58
2022/07/17 11:21:15;;;;;;;1.10;0.43;;;;;;;;;;4909136;29;20054;-58
2022/07/17 11:23:50;;;;;;;3.47;0.55;;;;;;;;;;4911931;29;20552;-56
2022/07/17 11:26:20;;;;;;;0.73;0.52;;;;;;;;;;4906660;29;20047;-57
2022/07/17 11:28:48;;;;;;;3.65;0.52;;;;;;;;;;4905254;29;20111;-54
2022/07/17 11:31:22;;;;;;;1.92;0.50;;;;;;;;;;4909014;29;20090;-57
2022/07/17 11:33:51;;;;;;;4.90;0.95;;;;;;;;;;4908540;29;20112;-57
2022/07/17 11:36:26;;;;;;;5.10;0.80;;;;;;;;;;4911357;29;20091;-57
2022/07/17 11:38:54;;;;;;;2.13;0.60;;;;;;;;;;4908334;29;20076;-56
2022/07/17 11:41:22;;;;;;;1.30;0.38;;;;;;;;;;4907263;29;20061;-57
2022/07/17 11:43:49;;;;;;;2.20;0.70;;;;;;;;;;4913675;29;20373;-57
2022/07/17 11:46:17;;;;;;;4.47;0.68;;;;;;;;;;4901942;29;20044;-59
2022/07/17 11:48:45;;;;;;;1.08;0.47;;;;;;;;;;4907724;29;20047;-56
2022/07/17 11:51:12;;;;;;;0.60;0.43;;;;;;;;;;4913151;29;20075;-60
2022/07/17 11:53:40;;;;;;;2.17;0.60;;;;;;;;;;4904915;29;20051;-60
2022/07/17 11:56:08;;;;;;;4.47;0.82;;;;;;;;;;4909803;29;20493;-60
2022/07/17 11:58:42;;;;;;;3.70;0.60;;;;;;;;;;4909044;29;20489;-60
2022/07/17 12:01:10;;;;;;;0.93;0.50;;;;;;;;;;4908421;29;20060;-59
2022/07/17 12:03:38;;;;;;;3.10;0.55;;;;;;;;;;4903722;29;20079;-60
2022/07/17 12:06:05;;;;;;;1.27;0.60;;;;;;;;;;4907696;29;20052;-57
2022/07/17 12:08:33;;;;;;;0.50;0.35;;;;;;;;;;4913402;29;20048;-52
2022/07/17 12:11:05;;;;;;;1.25;0.40;;;;;;;;;;4908461;29;20055;-56
2022/07/17 12:13:42;;;;;;;2.25;0.43;;;;;;;;;;4906665;29;20066;-55
2022/07/17 12:16:26;;;;;;;0.98;0.60;;;;;;;;;;4909033;29;20059;-54
2022/07/17 12:19:08;;;;;;;1.85;0.70;;;;;;;;;;4906109;29;20054;-56
2022/07/17 12:21:54;;;;;;;0.88;0.43;;;;;;;;;;4907219;29;20088;-56
2022/07/17 12:24:51;;;;;;;1.17;0.40;;;;;;;;;;4921007;29;20050;-58
2022/07/17 12:27:19;;;;;;;1.95;0.57;;;;;;;;;;4894199;29;20088;-57
2022/07/17 12:29:46;;;;;;;3.00;0.47;;;;;;;;;;4906486;29;20076;-55
2022/07/17 12:32:15;;;;;;;0.85;0.40;;;;;;;;;;4906962;29;20116;-56
2022/07/17 12:34:46;;;;;;;1.40;0.25;;;;;;;;;;4906332;29;20082;-57
2022/07/17 12:37:18;;;;;;;1.27;0.40;;;;;;;;;;4909240;29;20064;-58
2022/07/17 12:39:47;;;;;;;2.30;0.60;;;;;;;;;;4914010;29;20130;-57
2022/07/17 12:42:17;;;;;;;0.32;0.30;;;;;;;;;;4907622;29;20606;-56
2022/07/17 12:44:45;;;;;;;0.88;0.47;;;;;;;;;;4908445;29;20514;-59
2022/07/17 12:47:12;;;;;;;1.23;0.35;;;;;;;;;;4913037;29;20052;-57
2022/07/17 12:49:39;;;;;;;0.52;0.30;;;;;;;;;;4903905;29;20075;-53
2022/07/17 12:52:08;;;;;;;0.52;0.30;;;;;;;;;;4901775;29;20138;-54
2022/07/17 12:54:35;;;;;;;1.02;0.60;;;;;;;;;;4908647;29;20139;-56
2022/07/17 12:57:03;;;;;;;1.25;0.43;;;;;;;;;;4911714;29;20672;-54
2022/07/17 12:59:30;;;;;;;1.58;0.40;;;;;;;;;;4904636;29;20540;-54
2022/07/17 13:01:57;;;;;;;0.70;0.30;;;;;;;;;;4912955;29;20120;-60
2022/07/17 13:04:25;;;;;;;1.38;0.52;;;;;;;;;;4913971;29;20143;-53
2022/07/17 13:06:52;;;;;;;2.53;0.50;;;;;;;;;;4914659;29;20131;-57
2022/07/17 13:09:20;;;;;;;;;;;;;;;;;;4912546;29;20088;-56
2022/07/17 13:11:47;;;;;;;0.88;0.50;;;;;;;;;;4913067;29;19987;-60
2022/07/17 13:14:16;;;;;;;3.08;0.70;;;;;;;;;;4913823;29;20048;-55
2022/07/17 13:16:44;;;;;;;1.65;0.60;;;;;;;;;;4913006;29;20135;-56
2022/07/17 13:19:11;;;;;;;3.72;0.65;;;;;;;;;;4910360;29;20056;-56
2022/07/17 13:21:39;;;;;;;3.42;0.50;;;;;;;;;;4911890;29;20099;-53
2022/07/17 13:24:06;;;;;;;0.77;0.50;;;;;;;;;;4914776;29;20056;-55
2022/07/17 13:26:33;;;;;;;1.42;0.45;;;;;;;;;;4912466;29;20044;-60
2022/07/17 13:29:01;;;;;;;1.88;0.60;;;;;;;;;;4913219;29;20056;-60
2022/07/17 13:31:28;;;;;;;;;;;;;;;;;;4913845;29;20052;-59
2022/07/17 13:33:56;;;;;;;0.30;0.30;;;;;;;;;;4914749;29;20042;-60
2022/07/17 13:36:23;;;;;;;1.20;0.50;;;;;;;;;;4912893;29;20090;-60
2022/07/17 13:38:51;;;;;;;1.58;0.60;;;;;;;;;;4911080;29;20052;-59
2022/07/17 13:41:18;;;;;;;0.77;0.50;;;;;;;;;;4911557;29;20533;-57
2022/07/17 13:43:45;;;;;;;1.20;0.80;;;;;;;;;;4914973;29;20063;-54
2022/07/17 13:46:12;;;;;;;0.80;0.50;;;;;;;;;;4910974;29;20509;-58
2022/07/17 13:48:40;;;;;;;1.45;0.50;;;;;;;;;;4912246;29;20059;-57
2022/07/17 13:51:07;;;;;;;1.35;0.68;;;;;;;;;;4912466;29;20119;-58
2022/07/17 13:53:35;;;;;;;1.27;0.90;;;;;;;;;;4913774;29;20147;-58
2022/07/17 13:56:03;;;;;;;3.47;0.70;;;;;;;;;;4914917;29;20063;-58
2022/07/17 13:58:32;;;;;;;2.42;0.75;;;;;;;;;;4911985;29;20559;-58
2022/07/17 14:01:00;;;;;;;1.95;0.65;;;;;;;;;;4912534;29;21326;-57
2022/07/17 14:03:28;;;;;;;1.67;0.73;;;;;;;;;;4912982;29;20087;-59
2022/07/17 14:05:56;;;;;;;2.15;0.88;;;;;;;;;;4913459;29;20048;-59
2022/07/17 14:08:23;;;;;;;;;;;;;;;;;;4913407;29;20127;-59
2022/07/17 14:10:50;;;;;;;0.98;0.80;;;;;;;;;;4914345;29;19931;-59
2022/07/17 14:13:18;;;;;;;2.80;0.68;;;;;;;;;;4917929;29;20054;-58
2022/07/17 14:15:45;;;;;;;2.60;1.05;;;;;;;;;;4907675;29;20044;-60
2022/07/17 14:18:12;;;;;;;;;;;;;;;;;;4917282;29;20048;-55
2022/07/17 14:20:40;;;;;;;3.33;1.10;;;;;;;;;;4911924;29;19951;-57
2022/07/17 14:23:07;;;;;;;;;;;;;;;;;;4915062;29;20075;-55
2022/07/17 14:25:34;;;;;;;4.70;1.58;;;;;;;;;;4919185;29;19958;-55
2022/07/17 14:28:09;;;;;;;4.43;1.40;;;;;;;;;;4909641;29;20052;-57
2022/07/17 14:30:36;;;;;;;3.47;1.30;;;;;;;;;;4910086;29;20075;-56
2022/07/17 14:33:04;;;;;;;2.40;1.55;;;;;;;;;;4916853;29;20056;-54
2022/07/17 14:35:31;;;;;;;2.00;1.13;;;;;;;;;;4910878;29;20044;-55
2022/07/17 14:37:59;;;;;;;7.50;1.90;;;;;;;;;;4913982;29;20056;-59
2022/07/17 14:40:26;;;;;;;6.53;1.55;;;;;;;;;;4913616;29;20407;-55
2022/07/17 14:42:54;;;;;;;3.47;1.75;;;;;;;;;;4909762;29;20091;-59
2022/07/17 14:45:21;;;;;;;5.60;1.63;;;;;;;;;;4911481;29;20654;-60
2022/07/17 14:47:48;;;;;;;2.92;1.48;;;;;;;;;;4915552;29;20142;-59
2022/07/17 14:50:16;;;;;;;7.90;1.70;;;;;;;;;;4911300;29;20123;-59
2022/07/17 14:52:43;;;;;;;2.95;1.70;;;;;;;;;;4912105;29;20514;-59